createdAt,value
2022-12-18T00:00:08.892Z,1005.81
2022-12-18T00:00:19.879Z,1005.81
2022-12-18T00:00:30.871Z,1005.82
2022-12-18T00:00:41.878Z,1005.82
2022-12-18T00:00:52.855Z,1005.82
2022-12-18T00:01:03.846Z,1005.83
2022-12-18T00:01:14.885Z,1005.83
2022-12-18T00:01:25.925Z,1005.83
2022-12-18T00:01:36.990Z,1005.84
2022-12-18T00:01:47.887Z,1005.84
2022-12-18T00:01:58.842Z,1005.84
2022-12-18T00:02:09.784Z,1005.85
2022-12-18T00:02:20.779Z,1005.86
2022-12-18T00:02:31.796Z,1005.86
2022-12-18T00:02:42.891Z,1005.87
2022-12-18T00:02:53.897Z,1005.87
2022-12-18T00:03:04.930Z,1005.87
2022-12-18T00:03:15.896Z,1005.87
2022-12-18T00:03:26.854Z,1005.88
2022-12-18T00:03:38.338Z,1005.88
2022-12-18T00:03:48.835Z,1005.88
2022-12-18T00:03:59.856Z,1005.88
2022-12-18T00:04:10.746Z,1005.89
2022-12-18T00:04:21.836Z,1005.89
2022-12-18T00:04:32.644Z,1005.89
2022-12-18T00:04:43.641Z,1005.89
2022-12-18T00:04:54.621Z,1005.89
2022-12-18T00:05:05.616Z,1005.90
2022-12-18T00:05:16.602Z,1005.90
2022-12-18T00:05:27.588Z,1005.90
2022-12-18T00:05:38.585Z,1005.90
2022-12-18T00:05:49.571Z,1005.90
2022-12-18T00:06:00.551Z,1005.90
2022-12-18T00:06:11.542Z,1005.90
2022-12-18T00:06:22.558Z,1005.90
2022-12-18T00:06:33.522Z,1005.90
2022-12-18T00:06:44.506Z,1005.90
2022-12-18T00:06:55.487Z,1005.90
2022-12-18T00:07:06.483Z,1005.90
2022-12-18T00:07:17.468Z,1005.90
2022-12-18T00:07:28.452Z,1005.90
2022-12-18T00:07:39.441Z,1005.90
2022-12-18T00:07:50.438Z,1005.90
2022-12-18T00:08:01.421Z,1005.90
2022-12-18T00:08:12.400Z,1005.90
2022-12-18T00:08:23.388Z,1005.90
2022-12-18T00:08:34.379Z,1005.90
2022-12-18T00:08:45.371Z,1005.90
2022-12-18T00:08:56.355Z,1005.89
2022-12-18T00:09:07.359Z,1005.88
2022-12-18T00:09:18.333Z,1005.88
2022-12-18T00:09:31.651Z,1005.87
2022-12-18T00:09:41.303Z,1005.87
2022-12-18T00:09:51.286Z,1005.87
2022-12-18T00:10:02.284Z,1005.87
2022-12-18T00:10:15.270Z,1005.87
2022-12-18T00:10:24.261Z,1005.86
2022-12-18T00:10:35.241Z,1005.86
2022-12-18T00:10:46.230Z,1005.86
2022-12-18T00:10:59.550Z,1005.85
2022-12-18T00:11:08.215Z,1005.85
2022-12-18T00:11:19.223Z,1005.85
2022-12-18T00:11:30.179Z,1005.85
2022-12-18T00:11:41.167Z,1005.84
2022-12-18T00:11:52.150Z,1005.84
2022-12-18T00:12:25.117Z,1005.84
2022-12-18T00:12:36.110Z,1005.84
2022-12-18T00:12:47.094Z,1005.83
2022-12-18T00:12:58.078Z,1005.83
2022-12-18T00:13:10.254Z,1005.83
2022-12-18T00:13:20.057Z,1005.83
2022-12-18T00:13:31.074Z,1005.83
2022-12-18T00:13:42.369Z,1005.83
2022-12-18T00:13:53.016Z,1005.83
2022-12-18T00:14:04.003Z,1005.83
2022-12-18T00:14:15.013Z,1005.82
2022-12-18T00:14:26.008Z,1005.83
2022-12-18T00:14:36.967Z,1005.82
2022-12-18T00:14:47.961Z,1005.82
2022-12-18T00:14:58.940Z,1005.82
2022-12-18T00:15:09.944Z,1005.82
2022-12-18T00:15:20.918Z,1005.82
2022-12-18T00:15:31.905Z,1005.82
2022-12-18T00:15:42.945Z,1005.81
2022-12-18T00:15:53.913Z,1005.81
2022-12-18T00:16:04.937Z,1005.81
2022-12-18T00:16:15.879Z,1005.81
2022-12-18T00:16:26.931Z,1005.80
2022-12-18T00:16:38.012Z,1005.80
2022-12-18T00:16:48.811Z,1005.80
2022-12-18T00:16:59.803Z,1005.80
2022-12-18T00:17:10.791Z,1005.79
2022-12-18T00:17:21.775Z,1005.79
2022-12-18T00:17:32.776Z,1005.80
2022-12-18T00:17:43.744Z,1005.80
2022-12-18T00:17:54.734Z,1005.79
2022-12-18T00:18:05.742Z,1005.79
2022-12-18T00:18:20.393Z,1005.79
2022-12-18T00:18:27.689Z,1005.79
2022-12-18T00:18:39.080Z,1005.79
2022-12-18T00:18:49.668Z,1005.79
2022-12-18T00:19:00.688Z,1005.79
2022-12-18T00:19:11.639Z,1005.79
2022-12-18T00:19:22.635Z,1005.80
2022-12-18T00:19:33.613Z,1005.80
2022-12-18T00:19:44.599Z,1005.80
2022-12-18T00:19:55.582Z,1005.80
2022-12-18T00:20:06.590Z,1005.81
2022-12-18T00:20:17.558Z,1005.82
2022-12-18T00:20:28.549Z,1005.82
2022-12-18T00:20:39.544Z,1005.83
2022-12-18T00:20:50.515Z,1005.83
2022-12-18T00:21:01.503Z,1005.83
2022-12-18T00:21:12.496Z,1005.84
2022-12-18T00:21:23.481Z,1005.84
2022-12-18T00:21:34.467Z,1005.84
2022-12-18T00:21:45.458Z,1005.85
2022-12-18T00:21:56.454Z,1005.85
2022-12-18T00:22:07.427Z,1005.86
2022-12-18T00:22:18.421Z,1005.86
2022-12-18T00:22:29.404Z,1005.86
2022-12-18T00:22:40.391Z,1005.86
2022-12-18T00:22:51.384Z,1005.87
2022-12-18T00:23:02.367Z,1005.87
2022-12-18T00:23:13.350Z,1005.87
2022-12-18T00:23:24.351Z,1005.87
2022-12-18T00:23:35.828Z,1005.88
2022-12-18T00:23:46.317Z,1005.88
2022-12-18T00:23:57.348Z,1005.88
2022-12-18T00:24:08.291Z,1005.88
2022-12-18T00:24:19.284Z,1005.88
2022-12-18T00:24:30.269Z,1005.89
2022-12-18T00:24:41.255Z,1005.89
2022-12-18T00:24:52.253Z,1005.90
2022-12-18T00:25:03.234Z,1005.90
2022-12-18T00:25:14.218Z,1005.91
2022-12-18T00:25:25.206Z,1005.91
2022-12-18T00:25:36.217Z,1005.91
2022-12-18T00:25:47.185Z,1005.92
2022-12-18T00:25:58.172Z,1005.91
2022-12-18T00:26:09.161Z,1005.92
2022-12-18T00:26:20.151Z,1005.91
2022-12-18T00:26:31.132Z,1005.91
2022-12-18T00:26:42.127Z,1005.91
2022-12-18T00:26:53.109Z,1005.91
2022-12-18T00:27:04.094Z,1005.90
2022-12-18T00:27:15.087Z,1005.90
2022-12-18T00:27:26.077Z,1005.90
2022-12-18T00:27:37.055Z,1005.90
2022-12-18T00:27:48.044Z,1005.89
2022-12-18T00:27:59.036Z,1005.89
2022-12-18T00:28:10.031Z,1005.88
2022-12-18T00:28:21.009Z,1005.88
2022-12-18T00:28:32.002Z,1005.88
2022-12-18T00:28:43.011Z,1005.87
2022-12-18T00:28:53.977Z,1005.87
2022-12-18T00:29:05.324Z,1005.87
2022-12-18T00:29:15.959Z,1005.87
2022-12-18T00:29:26.953Z,1005.86
2022-12-18T00:29:37.940Z,1005.86
2022-12-18T00:29:48.926Z,1005.86
2022-12-18T00:29:59.920Z,1005.86
2022-12-18T00:30:10.909Z,1005.85
2022-12-18T00:30:21.891Z,1005.85
2022-12-18T00:30:32.912Z,1005.84
2022-12-18T00:30:43.871Z,1005.84
2022-12-18T00:30:54.872Z,1005.84
2022-12-18T00:31:05.907Z,1005.84
2022-12-18T00:31:16.878Z,1005.84
2022-12-18T00:31:27.902Z,1005.84
2022-12-18T00:31:38.926Z,1005.84
2022-12-18T00:31:49.918Z,1005.84
2022-12-18T00:32:00.902Z,1005.84
2022-12-18T00:32:11.787Z,1005.84
2022-12-18T00:32:22.777Z,1005.84
2022-12-18T00:32:33.766Z,1005.84
2022-12-18T00:32:44.765Z,1005.84
2022-12-18T00:32:55.745Z,1005.85
2022-12-18T00:33:06.738Z,1005.85
2022-12-18T00:33:17.720Z,1005.84
2022-12-18T00:33:28.718Z,1005.85
2022-12-18T00:33:40.282Z,1005.85
2022-12-18T00:33:52.701Z,1005.85
2022-12-18T00:34:01.687Z,1005.84
2022-12-18T00:34:12.668Z,1005.85
2022-12-18T00:34:23.659Z,1005.85
2022-12-18T00:34:34.642Z,1005.85
2022-12-18T00:34:45.635Z,1005.85
2022-12-18T00:34:56.635Z,1005.86
2022-12-18T00:35:07.615Z,1005.86
2022-12-18T00:35:18.598Z,1005.86
2022-12-18T00:35:29.616Z,1005.86
2022-12-18T00:35:40.579Z,1005.86
2022-12-18T00:35:51.567Z,1005.87
2022-12-18T00:36:02.559Z,1005.87
2022-12-18T00:36:13.567Z,1005.87
2022-12-18T00:36:24.551Z,1005.87
2022-12-18T00:36:35.521Z,1005.87
2022-12-18T00:36:46.515Z,1005.87
2022-12-18T00:36:57.511Z,1005.87
2022-12-18T00:37:08.492Z,1005.87
2022-12-18T00:37:20.405Z,1005.88
2022-12-18T00:37:30.472Z,1005.88
2022-12-18T00:37:41.466Z,1005.87
2022-12-18T00:37:52.452Z,1005.87
2022-12-18T00:38:03.437Z,1005.87
2022-12-18T00:38:14.433Z,1005.88
2022-12-18T00:38:25.425Z,1005.88
2022-12-18T00:38:36.415Z,1005.88
2022-12-18T00:38:47.410Z,1005.88
2022-12-18T00:38:58.402Z,1005.88
2022-12-18T00:39:09.423Z,1005.88
2022-12-18T00:39:20.372Z,1005.88
2022-12-18T00:39:31.364Z,1005.87
2022-12-18T00:39:42.348Z,1005.87
2022-12-18T00:39:53.347Z,1005.87
2022-12-18T00:40:04.347Z,1005.86
2022-12-18T00:40:15.320Z,1005.86
2022-12-18T00:40:26.318Z,1005.85
2022-12-18T00:40:37.302Z,1005.85
2022-12-18T00:40:48.291Z,1005.85
2022-12-18T00:40:59.279Z,1005.84
2022-12-18T00:41:10.272Z,1005.84
2022-12-18T00:41:21.264Z,1005.84
2022-12-18T00:41:32.250Z,1005.83
2022-12-18T00:41:43.243Z,1005.83
2022-12-18T00:41:54.226Z,1005.83
2022-12-18T00:42:05.221Z,1005.82
2022-12-18T00:42:16.207Z,1005.82
2022-12-18T00:42:27.200Z,1005.81
2022-12-18T00:42:38.185Z,1005.81
2022-12-18T00:42:49.178Z,1005.81
2022-12-18T00:43:00.187Z,1005.80
2022-12-18T00:43:11.174Z,1005.80
2022-12-18T00:43:22.154Z,1005.80
2022-12-18T00:43:33.159Z,1005.80
2022-12-18T00:43:44.126Z,1005.80
2022-12-18T00:43:55.154Z,1005.80
2022-12-18T00:44:06.147Z,1005.81
2022-12-18T00:44:17.100Z,1005.81
2022-12-18T00:44:28.096Z,1005.81
2022-12-18T00:44:39.087Z,1005.82
2022-12-18T00:44:50.073Z,1005.82
2022-12-18T00:45:01.060Z,1005.83
2022-12-18T00:45:13.100Z,1005.83
2022-12-18T00:45:23.110Z,1005.84
2022-12-18T00:45:34.148Z,1005.85
2022-12-18T00:45:45.121Z,1005.85
2022-12-18T00:45:56.127Z,1005.86
2022-12-18T00:46:07.046Z,1005.86
2022-12-18T00:46:18.054Z,1005.87
2022-12-18T00:46:28.986Z,1005.87
2022-12-18T00:46:39.980Z,1005.88
2022-12-18T00:46:50.990Z,1005.87
2022-12-18T00:47:01.959Z,1005.88
2022-12-18T00:47:12.970Z,1005.88
2022-12-18T00:47:23.935Z,1005.88
2022-12-18T00:47:34.927Z,1005.89
2022-12-18T00:47:45.921Z,1005.90
2022-12-18T00:47:56.915Z,1005.91
2022-12-18T00:48:07.899Z,1005.91
2022-12-18T00:48:18.883Z,1005.91
2022-12-18T00:48:29.881Z,1005.91
2022-12-18T00:48:40.869Z,1005.91
2022-12-18T00:48:51.862Z,1005.92
2022-12-18T00:49:02.855Z,1005.92
2022-12-18T00:49:13.853Z,1005.92
2022-12-18T00:49:24.828Z,1005.93
2022-12-18T00:49:35.826Z,1005.93
2022-12-18T00:49:46.814Z,1005.94
2022-12-18T00:49:57.804Z,1005.94
2022-12-18T00:50:08.798Z,1005.94
2022-12-18T00:50:19.776Z,1005.95
2022-12-18T00:50:30.769Z,1005.95
2022-12-18T00:50:41.762Z,1005.96
2022-12-18T00:50:52.744Z,1005.96
2022-12-18T00:51:03.739Z,1005.96
2022-12-18T00:51:14.722Z,1005.97
2022-12-18T00:51:25.715Z,1005.97
2022-12-18T00:51:36.696Z,1005.98
2022-12-18T00:51:47.690Z,1005.99
2022-12-18T00:51:58.707Z,1006.00
2022-12-18T00:52:09.665Z,1006.00
2022-12-18T00:52:20.660Z,1006.00
2022-12-18T00:52:31.641Z,1006.00
2022-12-18T00:52:42.637Z,1006.01
2022-12-18T00:52:53.632Z,1006.01
2022-12-18T00:53:04.607Z,1006.02
2022-12-18T00:53:15.624Z,1006.02
2022-12-18T00:53:26.596Z,1006.02
2022-12-18T00:53:37.910Z,1006.02
2022-12-18T00:53:48.572Z,1006.02
2022-12-18T00:53:59.562Z,1006.02
2022-12-18T00:54:10.541Z,1006.02
2022-12-18T00:54:21.535Z,1006.02
2022-12-18T00:54:32.520Z,1006.02
2022-12-18T00:54:43.513Z,1006.02
2022-12-18T00:54:54.509Z,1006.01
2022-12-18T00:55:06.643Z,1006.02
2022-12-18T00:55:16.482Z,1006.01
2022-12-18T00:55:27.470Z,1006.01
2022-12-18T00:55:38.470Z,1006.01
2022-12-18T00:55:49.449Z,1006.02
2022-12-18T00:56:00.439Z,1006.01
2022-12-18T00:56:11.432Z,1006.01
2022-12-18T00:56:22.420Z,1006.01
2022-12-18T00:56:33.414Z,1006.02
2022-12-18T00:56:48.676Z,1006.01
2022-12-18T00:56:55.383Z,1006.01
2022-12-18T00:57:06.387Z,1006.02
2022-12-18T00:57:17.363Z,1006.01
2022-12-18T00:57:28.351Z,1006.01
2022-12-18T00:57:39.350Z,1006.02
2022-12-18T00:57:50.332Z,1006.02
2022-12-18T00:58:01.330Z,1006.02
2022-12-18T00:58:12.340Z,1006.02
2022-12-18T00:58:23.303Z,1006.02
2022-12-18T00:58:34.296Z,1006.02
2022-12-18T00:58:45.278Z,1006.02
2022-12-18T00:58:56.270Z,1006.02
2022-12-18T00:59:07.283Z,1006.02
2022-12-18T00:59:18.249Z,1006.02
2022-12-18T00:59:29.260Z,1006.02
2022-12-18T00:59:40.236Z,1006.01
2022-12-18T00:59:51.217Z,1006.02
2022-12-18T01:00:02.205Z,1006.01
2022-12-18T01:00:13.192Z,1006.01
2022-12-18T01:00:24.188Z,1006.01
2022-12-18T01:00:35.248Z,1006.01
2022-12-18T01:00:46.278Z,1006.01
2022-12-18T01:00:57.229Z,1006.01
2022-12-18T01:01:08.225Z,1006.01
2022-12-18T01:01:19.245Z,1006.01
2022-12-18T01:01:30.247Z,1006.01
2022-12-18T01:01:41.409Z,1006.01
2022-12-18T01:01:52.306Z,1006.01
2022-12-18T01:02:03.256Z,1006.01
2022-12-18T01:02:14.335Z,1006.01
2022-12-18T01:02:25.241Z,1006.00
2022-12-18T01:02:36.177Z,1006.00
2022-12-18T01:02:47.291Z,1006.00
2022-12-18T01:02:58.142Z,1006.00
2022-12-18T01:03:09.122Z,1006.00
2022-12-18T01:03:20.141Z,1006.01
2022-12-18T01:03:31.022Z,1006.01
2022-12-18T01:03:42.308Z,1006.01
2022-12-18T01:03:53.004Z,1006.01
2022-12-18T01:04:03.998Z,1006.01
2022-12-18T01:04:14.987Z,1006.01
2022-12-18T01:04:25.974Z,1006.02
2022-12-18T01:04:36.971Z,1006.01
2022-12-18T01:04:47.960Z,1006.00
2022-12-18T01:04:58.945Z,1006.00
2022-12-18T01:05:09.938Z,1006.01
2022-12-18T01:05:20.930Z,1006.01
2022-12-18T01:05:31.928Z,1006.02
2022-12-18T01:05:42.915Z,1006.02
2022-12-18T01:05:53.902Z,1006.03
2022-12-18T01:06:04.893Z,1006.03
2022-12-18T01:06:15.886Z,1006.03
2022-12-18T01:06:26.876Z,1006.04
2022-12-18T01:06:37.893Z,1006.05
2022-12-18T01:06:48.900Z,1006.06
2022-12-18T01:06:59.848Z,1006.06
2022-12-18T01:07:10.834Z,1006.07
2022-12-18T01:07:21.821Z,1006.09
2022-12-18T01:07:32.811Z,1006.10
2022-12-18T01:07:43.802Z,1006.11
2022-12-18T01:07:54.788Z,1006.12
2022-12-18T01:08:05.786Z,1006.12
2022-12-18T01:08:16.769Z,1006.13
2022-12-18T01:08:27.765Z,1006.13
2022-12-18T01:08:38.739Z,1006.14
2022-12-18T01:08:49.727Z,1006.15
2022-12-18T01:09:00.714Z,1006.16
2022-12-18T01:09:11.705Z,1006.17
2022-12-18T01:09:22.724Z,1006.17
2022-12-18T01:09:33.695Z,1006.17
2022-12-18T01:09:44.683Z,1006.17
2022-12-18T01:09:55.662Z,1006.17
2022-12-18T01:10:06.651Z,1006.18
2022-12-18T01:10:17.662Z,1006.18
2022-12-18T01:10:28.632Z,1006.19
2022-12-18T01:10:39.622Z,1006.19
2022-12-18T01:10:50.616Z,1006.19
2022-12-18T01:11:01.599Z,1006.18
2022-12-18T01:11:12.592Z,1006.18
2022-12-18T01:11:23.578Z,1006.18
2022-12-18T01:11:34.570Z,1006.18
2022-12-18T01:11:45.558Z,1006.18
2022-12-18T01:11:56.552Z,1006.18
2022-12-18T01:12:07.552Z,1006.17
2022-12-18T01:12:18.523Z,1006.17
2022-12-18T01:12:29.515Z,1006.16
2022-12-18T01:12:40.504Z,1006.16
2022-12-18T01:12:51.497Z,1006.15
2022-12-18T01:13:02.476Z,1006.16
2022-12-18T01:13:13.476Z,1006.15
2022-12-18T01:13:24.459Z,1006.15
2022-12-18T01:13:35.734Z,1006.15
2022-12-18T01:13:46.440Z,1006.15
2022-12-18T01:13:57.424Z,1006.16
2022-12-18T01:14:08.410Z,1006.15
2022-12-18T01:14:19.445Z,1006.15
2022-12-18T01:14:30.386Z,1006.15
2022-12-18T01:14:41.376Z,1006.15
2022-12-18T01:14:52.367Z,1006.15
2022-12-18T01:15:03.355Z,1006.15
2022-12-18T01:15:14.356Z,1006.13
2022-12-18T01:15:25.330Z,1006.13
2022-12-18T01:15:36.361Z,1006.13
2022-12-18T01:15:47.306Z,1006.12
2022-12-18T01:15:58.311Z,1006.12
2022-12-18T01:16:09.387Z,1006.12
2022-12-18T01:16:20.311Z,1006.12
2022-12-18T01:16:31.302Z,1006.12
2022-12-18T01:16:42.297Z,1006.12
2022-12-18T01:16:53.281Z,1006.12
2022-12-18T01:17:04.229Z,1006.12
2022-12-18T01:17:15.223Z,1006.12
2022-12-18T01:17:26.212Z,1006.12
2022-12-18T01:17:37.201Z,1006.12
2022-12-18T01:17:48.189Z,1006.12
2022-12-18T01:17:59.184Z,1006.12
2022-12-18T01:18:10.170Z,1006.12
2022-12-18T01:18:21.166Z,1006.12
2022-12-18T01:18:32.156Z,1006.12
2022-12-18T01:18:43.140Z,1006.11
2022-12-18T01:18:54.130Z,1006.11
2022-12-18T01:19:05.120Z,1006.11
2022-12-18T01:19:16.115Z,1006.11
2022-12-18T01:19:27.108Z,1006.11
2022-12-18T01:19:38.089Z,1006.11
2022-12-18T01:19:49.083Z,1006.11
2022-12-18T01:20:00.083Z,1006.11
2022-12-18T01:20:11.063Z,1006.11
2022-12-18T01:20:22.049Z,1006.12
2022-12-18T01:20:33.042Z,1006.11
2022-12-18T01:20:44.058Z,1006.10
2022-12-18T01:20:55.019Z,1006.11
2022-12-18T01:21:06.006Z,1006.11
2022-12-18T01:21:16.998Z,1006.09
2022-12-18T01:21:27.987Z,1006.09
2022-12-18T01:21:39.002Z,1006.09
2022-12-18T01:21:49.961Z,1006.09
2022-12-18T01:22:00.952Z,1006.10
2022-12-18T01:22:11.942Z,1006.10
2022-12-18T01:22:22.934Z,1006.10
2022-12-18T01:22:33.918Z,1006.10
2022-12-18T01:22:44.909Z,1006.10
2022-12-18T01:22:55.889Z,1006.10
2022-12-18T01:23:06.879Z,1006.10
2022-12-18T01:23:17.867Z,1006.10
2022-12-18T01:23:28.855Z,1006.10
2022-12-18T01:23:40.299Z,1006.10
2022-12-18T01:23:50.843Z,1006.10
2022-12-18T01:24:01.821Z,1006.10
2022-12-18T01:24:12.813Z,1006.09
2022-12-18T01:24:23.801Z,1006.09
2022-12-18T01:24:34.786Z,1006.09
2022-12-18T01:24:45.772Z,1006.09
2022-12-18T01:24:56.766Z,1006.09
2022-12-18T01:25:07.752Z,1006.09
2022-12-18T01:25:18.753Z,1006.09
2022-12-18T01:25:29.727Z,1006.10
2022-12-18T01:25:40.714Z,1006.10
2022-12-18T01:25:51.705Z,1006.10
2022-12-18T01:26:02.701Z,1006.11
2022-12-18T01:26:13.677Z,1006.11
2022-12-18T01:26:24.709Z,1006.11
2022-12-18T01:26:35.661Z,1006.11
2022-12-18T01:26:46.653Z,1006.12
2022-12-18T01:26:57.646Z,1006.12
2022-12-18T01:27:08.638Z,1006.12
2022-12-18T01:27:19.617Z,1006.13
2022-12-18T01:27:30.606Z,1006.13
2022-12-18T01:27:41.594Z,1006.14
2022-12-18T01:27:52.582Z,1006.14
2022-12-18T01:28:03.573Z,1006.15
2022-12-18T01:28:14.587Z,1006.15
2022-12-18T01:28:25.547Z,1006.15
2022-12-18T01:28:36.536Z,1006.15
2022-12-18T01:28:47.523Z,1006.15
2022-12-18T01:28:58.519Z,1006.15
2022-12-18T01:29:09.501Z,1006.16
2022-12-18T01:29:20.501Z,1006.15
2022-12-18T01:29:31.486Z,1006.16
2022-12-18T01:29:42.475Z,1006.16
2022-12-18T01:29:53.466Z,1006.16
2022-12-18T01:30:04.446Z,1006.15
2022-12-18T01:30:15.440Z,1006.16
2022-12-18T01:30:26.426Z,1006.16
2022-12-18T01:30:37.408Z,1006.16
2022-12-18T01:30:48.399Z,1006.16
2022-12-18T01:30:59.393Z,1006.17
2022-12-18T01:31:10.370Z,1006.16
2022-12-18T01:31:21.422Z,1006.17
2022-12-18T01:31:32.471Z,1006.17
2022-12-18T01:31:43.386Z,1006.17
2022-12-18T01:31:54.358Z,1006.18
2022-12-18T01:32:05.369Z,1006.17
2022-12-18T01:32:16.293Z,1006.17
2022-12-18T01:32:27.283Z,1006.17
2022-12-18T01:32:38.272Z,1006.17
2022-12-18T01:32:49.256Z,1006.17
2022-12-18T01:33:00.242Z,1006.18
2022-12-18T01:33:11.232Z,1006.18
2022-12-18T01:33:22.215Z,1006.18
2022-12-18T01:33:33.204Z,1006.18
2022-12-18T01:33:44.189Z,1006.18
2022-12-18T01:33:55.174Z,1006.18
2022-12-18T01:34:06.161Z,1006.19
2022-12-18T01:34:17.153Z,1006.19
2022-12-18T01:34:28.141Z,1006.19
2022-12-18T01:34:39.125Z,1006.19
2022-12-18T01:34:50.109Z,1006.19
2022-12-18T01:35:01.097Z,1006.18
2022-12-18T01:35:12.108Z,1006.19
2022-12-18T01:35:23.101Z,1006.18
2022-12-18T01:35:34.069Z,1006.17
2022-12-18T01:35:45.051Z,1006.18
2022-12-18T01:35:56.063Z,1006.17
2022-12-18T01:36:07.038Z,1006.17
2022-12-18T01:36:18.018Z,1006.17
2022-12-18T01:36:29.006Z,1006.17
2022-12-18T01:36:40.012Z,1006.16
2022-12-18T01:36:50.984Z,1006.16
2022-12-18T01:37:01.977Z,1006.16
2022-12-18T01:37:12.960Z,1006.16
2022-12-18T01:37:23.949Z,1006.16
2022-12-18T01:37:34.934Z,1006.15
2022-12-18T01:37:45.927Z,1006.15
2022-12-18T01:37:56.914Z,1006.15
2022-12-18T01:38:07.899Z,1006.15
2022-12-18T01:38:18.893Z,1006.15
2022-12-18T01:38:29.878Z,1006.14
2022-12-18T01:38:40.865Z,1006.14
2022-12-18T01:38:51.852Z,1006.14
2022-12-18T01:39:02.878Z,1006.14
2022-12-18T01:39:13.827Z,1006.14
2022-12-18T01:39:24.808Z,1006.14
2022-12-18T01:39:35.797Z,1006.14
2022-12-18T01:39:46.793Z,1006.13
2022-12-18T01:39:57.778Z,1006.14
2022-12-18T01:40:08.765Z,1006.13
2022-12-18T01:40:19.752Z,1006.14
2022-12-18T01:40:30.738Z,1006.14
2022-12-18T01:40:41.729Z,1006.13
2022-12-18T01:40:52.709Z,1006.13
2022-12-18T01:41:03.694Z,1006.13
2022-12-18T01:41:14.691Z,1006.13
2022-12-18T01:41:25.680Z,1006.13
2022-12-18T01:41:36.665Z,1006.13
2022-12-18T01:41:47.654Z,1006.13
2022-12-18T01:41:58.637Z,1006.13
2022-12-18T01:42:09.631Z,1006.13
2022-12-18T01:42:20.615Z,1006.13
2022-12-18T01:42:31.608Z,1006.12
2022-12-18T01:42:42.597Z,1006.12
2022-12-18T01:42:53.581Z,1006.12
2022-12-18T01:43:04.588Z,1006.12
2022-12-18T01:43:15.570Z,1006.12
2022-12-18T01:43:26.563Z,1006.11
2022-12-18T01:43:38.000Z,1006.11
2022-12-18T01:43:48.533Z,1006.12
2022-12-18T01:43:59.523Z,1006.12
2022-12-18T01:44:10.539Z,1006.12
2022-12-18T01:44:21.497Z,1006.12
2022-12-18T01:44:32.493Z,1006.13
2022-12-18T01:44:43.480Z,1006.13
2022-12-18T01:44:54.469Z,1006.13
2022-12-18T01:45:05.472Z,1006.13
2022-12-18T01:45:16.450Z,1006.13
2022-12-18T01:45:27.487Z,1006.13
2022-12-18T01:45:38.513Z,1006.13
2022-12-18T01:45:49.456Z,1006.13
2022-12-18T01:46:00.484Z,1006.13
2022-12-18T01:46:11.445Z,1006.13
2022-12-18T01:46:22.451Z,1006.13
2022-12-18T01:46:33.380Z,1006.13
2022-12-18T01:46:44.368Z,1006.13
2022-12-18T01:46:55.354Z,1006.12
2022-12-18T01:47:06.375Z,1006.12
2022-12-18T01:47:17.335Z,1006.12
2022-12-18T01:47:28.330Z,1006.12
2022-12-18T01:47:39.312Z,1006.12
2022-12-18T01:47:50.296Z,1006.12
2022-12-18T01:48:01.293Z,1006.12
2022-12-18T01:48:12.277Z,1006.12
2022-12-18T01:48:23.259Z,1006.11
2022-12-18T01:48:34.253Z,1006.12
2022-12-18T01:48:45.234Z,1006.12
2022-12-18T01:48:56.224Z,1006.11
2022-12-18T01:49:07.234Z,1006.11
2022-12-18T01:49:18.201Z,1006.11
2022-12-18T01:49:29.194Z,1006.12
2022-12-18T01:49:40.179Z,1006.11
2022-12-18T01:49:51.160Z,1006.11
2022-12-18T01:50:02.155Z,1006.11
2022-12-18T01:50:13.132Z,1006.11
2022-12-18T01:50:24.123Z,1006.11
2022-12-18T01:50:35.115Z,1006.10
2022-12-18T01:50:46.118Z,1006.10
2022-12-18T01:50:57.087Z,1006.10
2022-12-18T01:51:08.075Z,1006.09
2022-12-18T01:51:19.055Z,1006.08
2022-12-18T01:51:30.050Z,1006.08
2022-12-18T01:51:41.034Z,1006.07
2022-12-18T01:51:52.030Z,1006.07
2022-12-18T01:52:03.006Z,1006.07
2022-12-18T01:52:13.998Z,1006.06
2022-12-18T01:52:25.010Z,1006.06
2022-12-18T01:52:35.979Z,1006.05
2022-12-18T01:52:46.959Z,1006.05
2022-12-18T01:52:57.949Z,1006.05
2022-12-18T01:53:08.937Z,1006.05
2022-12-18T01:53:19.925Z,1006.04
2022-12-18T01:53:30.909Z,1006.04
2022-12-18T01:53:42.026Z,1006.04
2022-12-18T01:53:52.887Z,1006.05
2022-12-18T01:54:03.877Z,1006.04
2022-12-18T01:54:14.859Z,1006.04
2022-12-18T01:54:25.848Z,1006.04
2022-12-18T01:54:36.844Z,1006.05
2022-12-18T01:54:47.831Z,1006.04
2022-12-18T01:54:58.810Z,1006.05
2022-12-18T01:55:09.798Z,1006.05
2022-12-18T01:55:20.786Z,1006.05
2022-12-18T01:55:31.777Z,1006.05
2022-12-18T01:55:42.761Z,1006.06
2022-12-18T01:55:53.752Z,1006.06
2022-12-18T01:56:04.735Z,1006.06
2022-12-18T01:56:15.734Z,1006.06
2022-12-18T01:56:26.720Z,1006.06
2022-12-18T01:56:37.733Z,1006.07
2022-12-18T01:56:48.684Z,1006.07
2022-12-18T01:56:59.672Z,1006.07
2022-12-18T01:57:10.662Z,1006.07
2022-12-18T01:57:21.655Z,1006.08
2022-12-18T01:57:32.629Z,1006.07
2022-12-18T01:57:43.623Z,1006.07
2022-12-18T01:57:54.615Z,1006.08
2022-12-18T01:58:05.598Z,1006.08
2022-12-18T01:58:16.583Z,1006.08
2022-12-18T01:58:27.572Z,1006.09
2022-12-18T01:58:38.555Z,1006.08
2022-12-18T01:58:49.548Z,1006.09
2022-12-18T01:59:00.530Z,1006.09
2022-12-18T01:59:11.523Z,1006.09
2022-12-18T01:59:22.508Z,1006.09
2022-12-18T01:59:33.500Z,1006.09
2022-12-18T01:59:44.484Z,1006.09
2022-12-18T01:59:55.475Z,1006.09
2022-12-18T02:00:06.460Z,1006.08
2022-12-18T02:00:17.448Z,1006.08
2022-12-18T02:00:28.433Z,1006.08
2022-12-18T02:00:39.425Z,1006.08
2022-12-18T02:00:50.459Z,1006.08
2022-12-18T02:01:01.443Z,1006.08
2022-12-18T02:01:12.451Z,1006.08
2022-12-18T02:01:23.483Z,1006.08
2022-12-18T02:01:34.540Z,1006.08
2022-12-18T02:01:45.496Z,1006.08
2022-12-18T02:01:56.527Z,1006.08
2022-12-18T02:02:07.485Z,1006.08
2022-12-18T02:02:18.425Z,1006.08
2022-12-18T02:02:29.447Z,1006.08
2022-12-18T02:02:40.493Z,1006.07
2022-12-18T02:02:51.444Z,1006.08
2022-12-18T02:03:02.363Z,1006.08
2022-12-18T02:03:13.273Z,1006.08
2022-12-18T02:03:24.294Z,1006.08
2022-12-18T02:03:35.415Z,1006.08
2022-12-18T02:03:46.202Z,1006.08
2022-12-18T02:03:57.186Z,1006.09
2022-12-18T02:04:08.185Z,1006.08
2022-12-18T02:04:19.171Z,1006.08
2022-12-18T02:04:30.152Z,1006.09
2022-12-18T02:04:43.924Z,1006.09
2022-12-18T02:04:53.123Z,1006.09
2022-12-18T02:05:03.105Z,1006.09
2022-12-18T02:05:14.117Z,1006.09
2022-12-18T02:05:25.088Z,1006.09
2022-12-18T02:05:36.086Z,1006.10
2022-12-18T02:05:47.059Z,1006.10
2022-12-18T02:05:58.045Z,1006.09
2022-12-18T02:06:09.033Z,1006.09
2022-12-18T02:06:20.028Z,1006.09
2022-12-18T02:06:31.017Z,1006.09
2022-12-18T02:06:42.001Z,1006.09
2022-12-18T02:06:52.995Z,1006.09
2022-12-18T02:07:03.982Z,1006.08
2022-12-18T02:07:14.966Z,1006.08
2022-12-18T02:07:25.957Z,1006.08
2022-12-18T02:07:36.946Z,1006.08
2022-12-18T02:07:47.960Z,1006.08
2022-12-18T02:07:58.908Z,1006.07
2022-12-18T02:08:09.898Z,1006.06
2022-12-18T02:08:20.890Z,1006.07
2022-12-18T02:08:31.874Z,1006.06
2022-12-18T02:08:42.859Z,1006.06
2022-12-18T02:08:53.841Z,1006.05
2022-12-18T02:09:04.831Z,1006.05
2022-12-18T02:09:15.822Z,1006.05
2022-12-18T02:09:26.802Z,1006.04
2022-12-18T02:09:37.791Z,1006.04
2022-12-18T02:09:48.780Z,1006.04
2022-12-18T02:09:59.762Z,1006.03
2022-12-18T02:10:10.750Z,1006.04
2022-12-18T02:10:21.733Z,1006.03
2022-12-18T02:10:32.721Z,1006.02
2022-12-18T02:10:43.730Z,1006.02
2022-12-18T02:10:54.691Z,1006.01
2022-12-18T02:11:05.680Z,1006.00
2022-12-18T02:11:16.663Z,1006.00
2022-12-18T02:11:27.643Z,1006.00
2022-12-18T02:11:38.640Z,1006.00
2022-12-18T02:11:49.630Z,1006.00
2022-12-18T02:12:00.605Z,1006.00
2022-12-18T02:12:11.590Z,1005.99
2022-12-18T02:12:22.582Z,1005.99
2022-12-18T02:12:33.674Z,1005.99
2022-12-18T02:12:44.550Z,1006.00
2022-12-18T02:12:55.562Z,1006.00
2022-12-18T02:13:06.522Z,1006.00
2022-12-18T02:13:17.515Z,1006.00